NCAR-RAP Real-Time Weather Data

Output produced by METARs form (06 May 2021  17:08 UTC)
found at http://weather.rap.ucar.edu/surface/
 
KCSV 061653Z AUTO VRB04KT 10SM CLR 15/02 A3014 RMK AO2 SLP202 T01500022
KCSV 061553Z AUTO VRB05KT 10SM CLR 13/03 A3015 RMK AO2 SLP208 T01330028
KCSV 061453Z AUTO 10005KT 10SM CLR 12/04 A3016 RMK AO2 SLP210 T01170039 50001
KCSV 061353Z AUTO 33006KT 10SM CLR 12/06 A3018 RMK AO2 SLP217 T01170056
KCSV 061253Z AUTO 36003KT 10SM CLR 09/05 A3018 RMK AO2 SLP215 T00940050
KCSV 061153Z AUTO 00000KT 10SM CLR 08/05 A3016 RMK AO2 SLP209 T00780050 10083 20044 53019
KCSV 061053Z AUTO 00000KT 10SM CLR 04/04 A3014 RMK AO2 SLP204 T00440039
KCSV 060953Z AUTO 36003KT 10SM CLR 06/04 A3010 RMK AO2 SLP192 T00610044
KCSV 060853Z AUTO 35003KT 10SM CLR 07/05 A3010 RMK AO2 SLP189 T00720050 56005
KCSV 060753Z AUTO 34005KT 10SM CLR 07/05 A3010 RMK AO2 SLP188 T00720050
KCSV 060653Z AUTO 32003KT 10SM CLR 08/06 A3010 RMK AO2 SLP188 T00780056
KCSV 060553Z AUTO 32004KT 10SM CLR 08/06 A3011 RMK AO2 SLP191 T00830061 10117 20067 401610067 58007
KCSV 060453Z AUTO 32005KT 10SM CLR 08/06 A3013 RMK AO2 SLP197 T00780061
KCSV 060353Z AUTO 29003KT 10SM FEW043 07/06 A3014 RMK AO2 SLP201 T00670061
KCSV 060253Z AUTO 00000KT 10SM CLR 08/07 A3014 RMK AO2 SLP201 T00780067 53012